createdAt,value
2022-11-06T00:01:18.822Z,97.20
2022-11-06T00:03:28.010Z,97.20
2022-11-06T00:05:51.961Z,97.30
2022-11-06T00:07:59.144Z,97.20
2022-11-06T00:10:06.889Z,97.00
2022-11-06T00:12:14.068Z,97.00
2022-11-06T00:14:22.124Z,96.70
2022-11-06T00:16:29.314Z,96.70
2022-11-06T00:18:39.629Z,96.40
2022-11-06T00:20:46.997Z,96.30
2022-11-06T00:22:54.541Z,96.30
2022-11-06T00:25:01.819Z,96.30
2022-11-06T00:27:09.310Z,96.20
2022-11-06T00:29:18.128Z,96.10
2022-11-06T00:31:27.158Z,95.80
2022-11-06T00:33:34.589Z,95.40
2022-11-06T00:35:44.127Z,95.10
2022-11-06T00:37:51.724Z,95.20
2022-11-06T00:40:00.538Z,95.20
2022-11-06T00:42:08.539Z,95.30
2022-11-06T00:44:15.925Z,95.10
2022-11-06T00:46:23.515Z,94.80
2022-11-06T00:48:31.728Z,94.80
2022-11-06T00:50:39.216Z,94.30
2022-11-06T00:52:48.442Z,94.00
2022-11-06T00:54:56.031Z,93.90
2022-11-06T00:57:03.262Z,93.90
2022-11-06T00:59:13.875Z,93.70
2022-11-06T01:01:23.426Z,93.60
2022-11-06T01:03:30.801Z,92.10
2022-11-06T01:05:37.827Z,92.40
2022-11-06T01:07:47.415Z,92.30
2022-11-06T01:09:54.699Z,92.10
2022-11-06T01:12:18.180Z,91.10
2022-11-06T01:14:26.265Z,91.30
2022-11-06T01:16:34.316Z,91.30
2022-11-06T01:18:42.268Z,91.40
2022-11-06T01:20:49.857Z,90.70
2022-11-06T01:23:00.165Z,89.10
2022-11-06T01:25:07.653Z,89.30
2022-11-06T01:27:30.322Z,88.50
2022-11-06T01:29:37.939Z,88.70
2022-11-06T01:31:45.735Z,87.50
2022-11-06T01:33:53.120Z,86.80
2022-11-06T01:36:00.814Z,85.60
2022-11-06T01:38:09.716Z,85.80
2022-11-06T01:40:17.586Z,85.50
2022-11-06T01:42:25.485Z,85.50
2022-11-06T01:45:04.825Z,84.10
2022-11-06T01:47:23.730Z,83.70
2022-11-06T01:49:34.086Z,82.40
2022-11-06T01:51:45.312Z,81.00
2022-11-06T01:53:55.149Z,81.60
2022-11-06T01:56:06.789Z,81.90
2022-11-06T01:58:18.064Z,81.00
2022-11-06T02:00:25.809Z,80.40
2022-11-06T02:02:33.277Z,79.30
2022-11-06T02:04:43.039Z,80.00
2022-11-06T02:06:51.192Z,78.90
2022-11-06T02:09:00.629Z,77.40
2022-11-06T02:11:07.912Z,77.20
2022-11-06T02:13:26.104Z,77.40
2022-11-06T02:15:43.163Z,74.60
2022-11-06T02:18:06.116Z,75.00
2022-11-06T02:20:21.393Z,74.40
2022-11-06T02:22:45.882Z,74.40
2022-11-06T02:25:28.689Z,74.30
2022-11-06T02:27:38.687Z,72.80
2022-11-06T02:29:51.962Z,73.00
2022-11-06T02:32:02.940Z,72.20
2022-11-06T02:34:14.931Z,72.30
2022-11-06T02:36:27.279Z,71.80
2022-11-06T02:38:37.481Z,71.90
2022-11-06T02:40:50.129Z,70.40
2022-11-06T02:43:00.759Z,68.30
2022-11-06T02:45:10.759Z,69.50
2022-11-06T02:47:19.265Z,67.90
2022-11-06T02:49:32.487Z,70.10
2022-11-06T02:51:45.506Z,70.30
2022-11-06T02:53:53.558Z,70.30
2022-11-06T02:56:05.655Z,68.90
2022-11-06T02:58:19.952Z,69.80
2022-11-06T03:00:27.347Z,69.80
2022-11-06T03:02:41.707Z,69.70
2022-11-06T03:04:53.870Z,68.80
2022-11-06T03:07:08.698Z,68.50
2022-11-06T03:09:20.385Z,65.80
2022-11-06T03:11:27.620Z,68.20
2022-11-06T03:13:47.395Z,66.40
2022-11-06T03:16:06.254Z,67.40
2022-11-06T03:18:19.371Z,67.90
2022-11-06T03:20:34.642Z,67.60
2022-11-06T03:22:47.507Z,66.80
2022-11-06T03:25:01.806Z,67.90
2022-11-06T03:27:13.800Z,65.70
2022-11-06T03:29:32.609Z,65.30
2022-11-06T03:31:42.397Z,65.00
2022-11-06T03:33:56.030Z,65.70
2022-11-06T03:36:08.384Z,64.70
2022-11-06T03:38:20.121Z,64.30
2022-11-06T03:40:30.223Z,64.50
2022-11-06T03:42:38.786Z,63.90
2022-11-06T03:44:50.985Z,63.20
2022-11-06T03:47:01.189Z,63.30
2022-11-06T03:49:11.204Z,63.60
2022-11-06T03:51:22.706Z,64.00
2022-11-06T03:53:34.089Z,63.60
2022-11-06T03:55:46.257Z,63.20
2022-11-06T03:57:57.273Z,63.20
2022-11-06T04:00:10.702Z,62.90
2022-11-06T04:02:23.677Z,61.60
2022-11-06T04:04:35.247Z,60.40
2022-11-06T04:06:47.145Z,60.10
2022-11-06T04:09:13.218Z,60.40
2022-11-06T04:11:39.855Z,59.50
2022-11-06T04:14:02.044Z,58.40
2022-11-06T04:16:10.960Z,58.00
2022-11-06T04:18:21.981Z,57.30
2022-11-06T04:20:54.762Z,58.20
2022-11-06T04:23:11.104Z,58.00
2022-11-06T04:25:49.164Z,58.60
2022-11-06T04:28:12.277Z,58.10
2022-11-06T04:30:20.632Z,55.60
2022-11-06T04:32:36.309Z,55.20
2022-11-06T04:34:48.771Z,56.70
2022-11-06T04:37:09.162Z,56.80
2022-11-06T04:39:25.553Z,57.30
2022-11-06T04:41:38.063Z,57.60
2022-11-06T04:43:51.188Z,57.50
2022-11-06T04:46:02.664Z,57.10
2022-11-06T04:48:12.676Z,56.80
2022-11-06T04:50:23.068Z,56.50
2022-11-06T04:52:31.377Z,55.10
2022-11-06T04:54:39.231Z,55.30
2022-11-06T04:56:46.783Z,55.70
2022-11-06T04:58:54.460Z,55.60
2022-11-06T05:01:01.356Z,56.20
2022-11-06T05:03:10.265Z,55.60
2022-11-06T05:05:17.028Z,55.30
2022-11-06T05:07:24.056Z,56.00
2022-11-06T05:09:31.389Z,55.40
2022-11-06T05:11:39.444Z,55.50
2022-11-06T05:13:46.222Z,54.60
2022-11-06T05:15:58.055Z,55.10
2022-11-06T05:18:05.031Z,52.60
2022-11-06T05:20:14.722Z,53.60
2022-11-06T05:22:38.185Z,53.90
2022-11-06T05:24:45.212Z,52.10
2022-11-06T05:26:57.849Z,53.20
2022-11-06T05:29:06.604Z,52.80
2022-11-06T05:31:14.131Z,53.40
2022-11-06T05:33:21.006Z,53.20
2022-11-06T05:35:30.141Z,53.50
2022-11-06T05:37:37.416Z,53.60
2022-11-06T05:39:44.804Z,53.80
2022-11-06T05:41:51.678Z,53.70
2022-11-06T05:43:58.917Z,53.40
2022-11-06T05:46:08.987Z,52.80
2022-11-06T05:48:23.105Z,53.10
2022-11-06T05:50:32.029Z,50.10
2022-11-06T05:52:43.662Z,51.80
2022-11-06T05:54:50.490Z,51.10
2022-11-06T05:56:57.668Z,52.10
2022-11-06T05:59:05.215Z,52.40
2022-11-06T06:01:12.904Z,52.60
2022-11-06T06:03:20.085Z,52.70
2022-11-06T06:05:27.425Z,53.00
2022-11-06T06:07:36.084Z,53.40
2022-11-06T06:09:43.429Z,53.20
2022-11-06T06:11:53.367Z,52.50
2022-11-06T06:14:00.445Z,51.80
2022-11-06T06:16:08.091Z,51.30
2022-11-06T06:18:15.543Z,51.30
2022-11-06T06:20:23.016Z,50.00
2022-11-06T06:22:30.504Z,50.70
2022-11-06T06:24:39.439Z,48.50
2022-11-06T06:26:46.915Z,50.90
2022-11-06T06:28:53.692Z,51.40
2022-11-06T06:31:01.946Z,51.70
2022-11-06T06:33:10.258Z,51.30
2022-11-06T06:35:18.869Z,51.60
2022-11-06T06:37:25.592Z,52.20
2022-11-06T06:39:32.666Z,51.40
2022-11-06T06:41:41.127Z,50.40
2022-11-06T06:43:51.022Z,50.80
2022-11-06T06:46:00.252Z,50.40
2022-11-06T06:48:07.793Z,49.70
2022-11-06T06:50:14.719Z,49.30
2022-11-06T06:52:21.899Z,49.50
2022-11-06T06:54:28.727Z,50.00
2022-11-06T06:56:35.956Z,50.30
2022-11-06T06:58:44.428Z,49.80
2022-11-06T07:00:51.477Z,50.10
2022-11-06T07:02:59.090Z,50.90
2022-11-06T07:05:06.269Z,50.40
2022-11-06T07:07:13.147Z,50.20
2022-11-06T07:09:19.967Z,49.40
2022-11-06T07:11:27.511Z,49.40
2022-11-06T07:13:36.301Z,50.40
2022-11-06T07:15:45.813Z,48.30
2022-11-06T07:17:52.945Z,49.00
2022-11-06T07:20:00.332Z,49.20
2022-11-06T07:22:07.574Z,49.30
2022-11-06T07:24:15.358Z,49.90
2022-11-06T07:26:22.138Z,50.10
2022-11-06T07:28:29.261Z,49.70
2022-11-06T07:30:37.314Z,48.40
2022-11-06T07:32:46.700Z,49.00
2022-11-06T07:34:53.527Z,48.60
2022-11-06T07:37:04.006Z,47.70
2022-11-06T07:39:13.718Z,48.90
2022-11-06T07:41:21.167Z,49.70
2022-11-06T07:43:28.748Z,49.10
2022-11-06T07:45:36.654Z,48.60
2022-11-06T07:47:45.630Z,49.10
2022-11-06T07:49:53.009Z,47.80
2022-11-06T07:51:59.881Z,47.80
2022-11-06T07:54:07.062Z,47.50
2022-11-06T07:56:13.839Z,47.70
2022-11-06T07:58:21.192Z,47.10
2022-11-06T08:00:28.402Z,47.20
2022-11-06T08:02:36.016Z,48.30
2022-11-06T08:04:44.918Z,48.50
2022-11-06T08:06:52.510Z,47.00
2022-11-06T08:08:59.693Z,47.60
2022-11-06T08:11:07.997Z,47.90
2022-11-06T08:13:15.177Z,48.10
2022-11-06T08:15:22.103Z,48.20
2022-11-06T08:17:28.988Z,48.90
2022-11-06T08:19:36.064Z,48.90
2022-11-06T08:21:44.629Z,48.70
2022-11-06T08:23:52.267Z,49.40
2022-11-06T08:26:00.948Z,49.20
2022-11-06T08:28:08.113Z,49.30
2022-11-06T08:30:16.113Z,49.50
2022-11-06T08:32:23.450Z,49.50
2022-11-06T08:34:30.629Z,50.00
2022-11-06T08:36:48.389Z,50.10
2022-11-06T08:38:58.109Z,48.60
2022-11-06T08:41:10.251Z,49.40
2022-11-06T08:43:17.310Z,49.30
2022-11-06T08:45:24.611Z,49.50
2022-11-06T08:47:31.796Z,49.30
2022-11-06T08:49:39.182Z,49.60
2022-11-06T08:51:47.744Z,49.40
2022-11-06T08:53:54.829Z,49.50
2022-11-06T08:56:01.962Z,49.20
2022-11-06T08:58:10.777Z,50.30
2022-11-06T09:00:18.935Z,50.50
2022-11-06T09:02:26.873Z,51.00
2022-11-06T09:04:38.636Z,50.80
2022-11-06T09:06:50.304Z,50.60
2022-11-06T09:08:57.537Z,51.20
2022-11-06T09:11:08.467Z,50.50
2022-11-06T09:13:16.253Z,51.30
2022-11-06T09:15:23.897Z,51.60
2022-11-06T09:17:31.081Z,51.80
2022-11-06T09:19:38.430Z,52.50
2022-11-06T09:21:53.456Z,52.50
2022-11-06T09:24:03.475Z,52.50
2022-11-06T09:26:10.199Z,53.00
2022-11-06T09:28:17.325Z,52.80
2022-11-06T09:30:25.878Z,52.40
2022-11-06T09:32:33.132Z,52.20
2022-11-06T09:34:40.310Z,52.10
2022-11-06T09:36:47.948Z,52.20
2022-11-06T09:38:54.777Z,52.70
2022-11-06T09:41:04.666Z,53.70
2022-11-06T09:43:50.023Z,53.70
2022-11-06T09:45:55.095Z,54.10
2022-11-06T09:48:16.285Z,54.30
2022-11-06T09:50:28.333Z,54.50
2022-11-06T09:52:36.843Z,55.00
2022-11-06T09:54:55.832Z,56.30
2022-11-06T09:57:08.461Z,56.30
2022-11-06T09:59:20.461Z,56.90
2022-11-06T10:01:32.131Z,57.20
2022-11-06T10:03:46.851Z,57.10
2022-11-06T10:05:56.856Z,56.80
2022-11-06T10:08:05.923Z,56.30
2022-11-06T10:10:19.151Z,56.40
2022-11-06T10:12:34.063Z,56.60
2022-11-06T10:14:53.275Z,56.90
2022-11-06T10:17:09.467Z,57.00
2022-11-06T10:19:27.151Z,57.30
2022-11-06T10:21:43.095Z,57.70
2022-11-06T10:23:55.655Z,57.20
2022-11-06T10:26:12.970Z,56.80
2022-11-06T10:28:35.215Z,57.80
2022-11-06T10:30:51.134Z,59.00
2022-11-06T10:33:27.341Z,60.30
2022-11-06T10:35:38.313Z,63.30
2022-11-06T10:37:51.283Z,62.50
2022-11-06T10:39:59.697Z,63.40
2022-11-06T10:42:09.640Z,65.20
2022-11-06T10:44:24.295Z,66.20
2022-11-06T10:46:38.079Z,66.20
2022-11-06T10:48:49.920Z,67.90
2022-11-06T10:51:08.263Z,67.30
2022-11-06T10:53:24.969Z,66.30
2022-11-06T10:55:59.903Z,66.60
2022-11-06T10:58:09.136Z,65.60
2022-11-06T11:00:19.083Z,66.20
2022-11-06T11:02:33.496Z,66.70
2022-11-06T11:04:42.101Z,66.90
2022-11-06T11:06:48.866Z,67.00
2022-11-06T11:08:56.406Z,67.30
2022-11-06T11:11:06.668Z,68.00
2022-11-06T11:13:24.028Z,68.70
2022-11-06T11:15:36.381Z,71.90
2022-11-06T11:17:44.643Z,71.60
2022-11-06T11:19:52.539Z,72.00
2022-11-06T11:22:01.277Z,71.40
2022-11-06T11:24:12.444Z,71.80
2022-11-06T11:26:28.574Z,72.90
2022-11-06T11:28:39.029Z,73.10
2022-11-06T11:30:56.145Z,72.20
2022-11-06T11:33:03.582Z,73.60
2022-11-06T11:35:14.040Z,72.70
2022-11-06T11:37:28.908Z,72.40
2022-11-06T11:39:37.213Z,73.10
2022-11-06T11:41:44.445Z,74.00
2022-11-06T11:44:01.409Z,73.90
2022-11-06T11:46:22.258Z,74.10
2022-11-06T11:48:29.439Z,75.20
2022-11-06T11:50:37.697Z,74.60
2022-11-06T11:52:44.575Z,75.20
2022-11-06T11:54:55.495Z,74.30
2022-11-06T11:57:07.000Z,74.10
2022-11-06T11:59:23.491Z,74.10
2022-11-06T12:01:43.452Z,76.00
2022-11-06T12:03:53.710Z,76.10
2022-11-06T12:06:11.183Z,75.90
2022-11-06T12:08:28.141Z,77.10
2022-11-06T12:10:37.679Z,77.60
2022-11-06T12:12:53.058Z,76.80
2022-11-06T12:15:23.274Z,76.60
2022-11-06T12:17:34.959Z,76.30
2022-11-06T12:19:45.579Z,75.40
2022-11-06T12:21:57.821Z,75.30
2022-11-06T12:24:06.385Z,75.70
2022-11-06T12:26:29.082Z,79.50
2022-11-06T12:28:38.927Z,79.00
2022-11-06T12:30:48.414Z,78.70
2022-11-06T12:33:13.156Z,78.90
2022-11-06T12:35:27.097Z,79.80
2022-11-06T12:37:42.210Z,79.20
2022-11-06T12:39:56.721Z,79.70
2022-11-06T12:42:07.326Z,78.30
2022-11-06T12:44:17.127Z,78.30
2022-11-06T12:46:48.264Z,78.50
2022-11-06T12:49:30.107Z,78.40
2022-11-06T12:51:50.036Z,78.40
2022-11-06T12:54:14.834Z,78.10
2022-11-06T12:56:26.066Z,78.30
2022-11-06T12:58:54.801Z,78.80
2022-11-06T13:01:09.921Z,79.50
2022-11-06T13:03:36.911Z,79.80
2022-11-06T13:05:51.772Z,79.30
2022-11-06T13:08:26.814Z,79.70
2022-11-06T13:10:46.333Z,80.70
2022-11-06T13:13:04.928Z,80.60
2022-11-06T13:15:23.732Z,80.30
2022-11-06T13:17:34.392Z,79.50
2022-11-06T13:19:44.952Z,80.10
2022-11-06T13:22:20.352Z,80.70
2022-11-06T13:24:34.195Z,81.20
2022-11-06T13:26:45.461Z,80.30
2022-11-06T13:28:58.126Z,80.30
2022-11-06T13:31:07.659Z,80.80
2022-11-06T13:33:20.886Z,79.30
2022-11-06T13:35:28.421Z,79.90
2022-11-06T13:37:42.671Z,80.00
2022-11-06T13:39:55.381Z,79.00
2022-11-06T13:42:03.639Z,79.10
2022-11-06T13:44:16.963Z,79.70
2022-11-06T13:46:30.647Z,80.60
2022-11-06T13:48:46.994Z,81.00
2022-11-06T13:51:01.445Z,79.40
2022-11-06T13:53:18.048Z,78.60
2022-11-06T13:55:38.807Z,78.10
2022-11-06T13:58:19.213Z,79.00
2022-11-06T14:00:27.056Z,80.50
2022-11-06T14:03:00.916Z,80.40
2022-11-06T14:05:55.557Z,79.00
2022-11-06T14:10:50.533Z,79.00
2022-11-06T14:12:58.011Z,78.50
2022-11-06T14:15:24.651Z,79.40
2022-11-06T14:17:31.676Z,79.90
2022-11-06T14:19:39.117Z,80.70
2022-11-06T14:21:55.240Z,80.60
2022-11-06T14:24:10.889Z,80.40
2022-11-06T14:26:41.008Z,81.30
2022-11-06T14:28:48.579Z,82.30
2022-11-06T14:31:12.665Z,81.50
2022-11-06T14:33:56.874Z,81.50
2022-11-06T14:36:16.705Z,81.70
2022-11-06T14:38:43.633Z,82.50
2022-11-06T14:40:51.043Z,82.60
2022-11-06T14:45:22.043Z,82.30
2022-11-06T14:47:46.896Z,82.90
2022-11-06T14:50:17.974Z,82.90
2022-11-06T14:52:26.999Z,82.90
2022-11-06T14:54:36.559Z,82.60
2022-11-06T14:56:43.410Z,82.80
2022-11-06T14:58:57.097Z,82.50
2022-11-06T15:01:15.689Z,81.50
2022-11-06T15:03:29.795Z,81.10
2022-11-06T15:05:42.430Z,82.90
2022-11-06T15:08:05.692Z,83.40
2022-11-06T15:10:53.193Z,83.80
2022-11-06T15:13:13.852Z,83.50
2022-11-06T15:15:23.985Z,83.60
2022-11-06T15:17:37.010Z,83.60
2022-11-06T15:19:46.598Z,83.80
2022-11-06T15:21:58.928Z,83.60
2022-11-06T15:24:10.251Z,84.00
2022-11-06T15:26:26.975Z,84.20
2022-11-06T15:28:41.438Z,84.00
2022-11-06T15:30:52.703Z,84.30
2022-11-06T15:33:00.961Z,84.10
2022-11-06T15:35:11.626Z,84.00
2022-11-06T15:37:22.953Z,83.90
2022-11-06T15:39:41.711Z,83.70
2022-11-06T15:41:49.502Z,83.90
2022-11-06T15:43:58.212Z,84.10
2022-11-06T15:46:22.658Z,84.00
2022-11-06T15:48:29.439Z,84.20
2022-11-06T15:50:38.197Z,85.00
2022-11-06T15:52:45.795Z,85.20
2022-11-06T15:54:59.872Z,85.10
2022-11-06T15:57:10.911Z,85.70
2022-11-06T15:59:19.829Z,86.10
2022-11-06T16:01:36.797Z,86.00
2022-11-06T16:03:54.208Z,86.40
2022-11-06T16:06:03.783Z,86.60
2022-11-06T16:08:11.580Z,86.70
2022-11-06T16:10:20.525Z,86.40
2022-11-06T16:12:27.910Z,86.50
2022-11-06T16:14:35.543Z,86.10
2022-11-06T16:16:47.491Z,86.10
2022-11-06T16:18:55.143Z,86.50
2022-11-06T16:21:04.932Z,86.90
2022-11-06T16:23:16.531Z,86.60
2022-11-06T16:25:24.461Z,86.70
2022-11-06T16:27:37.427Z,86.80
2022-11-06T16:29:51.261Z,86.30
2022-11-06T16:32:10.321Z,86.30
2022-11-06T16:34:35.714Z,86.30
2022-11-06T16:37:01.088Z,86.20
2022-11-06T16:39:50.401Z,86.60
2022-11-06T16:42:05.220Z,86.80
2022-11-06T16:44:31.381Z,86.50
2022-11-06T16:47:19.956Z,86.90
2022-11-06T16:49:36.141Z,87.00
2022-11-06T16:51:42.908Z,86.70
2022-11-06T16:53:59.361Z,86.80
2022-11-06T16:56:09.001Z,86.70
2022-11-06T16:58:20.533Z,86.60
2022-11-06T17:00:30.230Z,86.80
2022-11-06T17:02:41.608Z,86.90
2022-11-06T17:04:48.792Z,87.10
2022-11-06T17:06:57.203Z,87.10
2022-11-06T17:09:10.420Z,87.10
2022-11-06T17:11:24.256Z,86.60
2022-11-06T17:13:34.461Z,86.40
2022-11-06T17:15:41.488Z,86.50
2022-11-06T17:17:52.356Z,86.70
2022-11-06T17:19:59.894Z,86.70
2022-11-06T17:22:12.817Z,86.70
2022-11-06T17:24:37.093Z,86.90
2022-11-06T17:26:48.324Z,87.00
2022-11-06T17:28:55.450Z,87.30
2022-11-06T17:31:02.429Z,87.30
2022-11-06T17:33:11.389Z,87.00
2022-11-06T17:35:18.994Z,87.00
2022-11-06T17:37:26.439Z,87.00
2022-11-06T17:39:35.666Z,87.10
2022-11-06T17:41:42.533Z,87.10
2022-11-06T17:43:49.612Z,86.90
2022-11-06T17:45:56.493Z,87.10
2022-11-06T17:48:03.618Z,87.60
2022-11-06T17:50:13.105Z,87.40
2022-11-06T17:52:18.857Z,87.50
2022-11-06T17:54:27.170Z,87.70
2022-11-06T17:56:37.964Z,87.00
2022-11-06T17:58:45.469Z,87.30
2022-11-06T18:00:52.903Z,88.00
2022-11-06T18:03:02.301Z,87.70
2022-11-06T18:05:12.181Z,87.50
2022-11-06T18:07:19.157Z,87.70
2022-11-06T18:09:26.858Z,88.00
2022-11-06T18:11:34.135Z,87.80
2022-11-06T18:13:41.522Z,87.60
2022-11-06T18:15:48.297Z,87.90
2022-11-06T18:17:55.579Z,88.10
2022-11-06T18:20:02.650Z,88.20
2022-11-06T18:22:12.141Z,87.80
2022-11-06T18:24:19.273Z,87.80
2022-11-06T18:26:26.915Z,88.00
2022-11-06T18:28:34.308Z,88.20
2022-11-06T18:30:42.250Z,88.20
2022-11-06T18:32:49.388Z,88.20
2022-11-06T18:34:56.930Z,88.10
2022-11-06T18:37:03.642Z,87.90
2022-11-06T18:39:13.130Z,88.00
2022-11-06T18:41:22.665Z,88.30
2022-11-06T18:43:29.596Z,88.10
2022-11-06T18:45:36.623Z,88.20
2022-11-06T18:47:43.652Z,88.10
2022-11-06T18:49:51.033Z,88.40
2022-11-06T18:51:58.163Z,88.70
2022-11-06T18:54:07.597Z,88.50
2022-11-06T18:56:18.056Z,88.70
2022-11-06T18:58:25.697Z,89.00
2022-11-06T19:00:32.835Z,89.10
2022-11-06T19:02:39.996Z,89.10
2022-11-06T19:04:47.073Z,89.00
2022-11-06T19:06:54.219Z,89.20
2022-11-06T19:09:01.099Z,89.10
2022-11-06T19:11:09.862Z,89.20
2022-11-06T19:13:18.384Z,89.20
2022-11-06T19:15:25.453Z,89.40
2022-11-06T19:17:32.178Z,89.50
2022-11-06T19:19:39.715Z,89.70
2022-11-06T19:21:48.945Z,90.00
2022-11-06T19:24:02.716Z,89.80
2022-11-06T19:28:41.572Z,90.10
2022-11-06T19:30:48.647Z,90.10
2022-11-06T19:32:56.295Z,90.10
2022-11-06T19:35:03.165Z,89.90
2022-11-06T19:37:10.243Z,89.90
2022-11-06T19:39:17.732Z,90.10
2022-11-06T19:41:25.584Z,90.20
2022-11-06T19:43:32.866Z,90.40
2022-11-06T19:45:41.940Z,91.00
2022-11-06T19:47:49.124Z,91.30
2022-11-06T19:49:56.560Z,91.40
2022-11-06T19:52:41.452Z,91.70
2022-11-06T19:54:30.531Z,91.50
2022-11-06T19:56:37.304Z,91.60
2022-11-06T19:59:04.708Z,91.90
2022-11-06T20:01:15.344Z,91.80
2022-11-06T20:03:22.502Z,91.60
2022-11-06T20:05:29.685Z,91.70
2022-11-06T20:07:38.861Z,91.80
2022-11-06T20:09:45.636Z,91.30
2022-11-06T20:11:54.663Z,91.30
2022-11-06T20:14:01.791Z,91.50
2022-11-06T20:16:12.556Z,91.80
2022-11-06T20:18:21.078Z,92.00
2022-11-06T20:20:33.274Z,92.00
2022-11-06T20:22:42.710Z,91.70
2022-11-06T20:24:49.934Z,91.80
2022-11-06T20:26:56.720Z,91.70
2022-11-06T20:29:03.939Z,91.70
2022-11-06T20:31:14.302Z,91.50
2022-11-06T20:33:22.143Z,91.30
2022-11-06T20:35:29.735Z,91.40
2022-11-06T20:37:37.434Z,91.20
2022-11-06T20:39:44.252Z,91.20
2022-11-06T20:41:51.849Z,91.20
2022-11-06T20:43:59.128Z,91.50
2022-11-06T20:46:07.279Z,91.60
2022-11-06T20:48:16.458Z,92.00
2022-11-06T20:50:23.641Z,92.30
2022-11-06T20:52:30.873Z,92.50
2022-11-06T20:54:41.231Z,92.40
2022-11-06T20:56:52.055Z,92.70
2022-11-06T20:59:00.047Z,92.70
2022-11-06T21:01:07.875Z,92.60
2022-11-06T21:03:16.963Z,92.70
2022-11-06T21:05:23.843Z,92.70
2022-11-06T21:07:31.331Z,92.80
2022-11-06T21:09:38.622Z,92.90
2022-11-06T21:11:45.902Z,92.90
2022-11-06T21:13:55.182Z,93.00
2022-11-06T21:16:03.029Z,93.00
2022-11-06T21:18:10.056Z,92.80
2022-11-06T21:20:22.561Z,92.80
2022-11-06T21:22:30.566Z,92.90
2022-11-06T21:24:38.264Z,92.90
2022-11-06T21:26:45.797Z,92.90
2022-11-06T21:28:52.980Z,93.40
2022-11-06T21:31:00.061Z,93.20
2022-11-06T21:33:07.292Z,93.20
2022-11-06T21:35:16.878Z,93.40
2022-11-06T21:37:33.735Z,93.60
2022-11-06T21:39:41.520Z,93.60
2022-11-06T21:41:49.072Z,93.70
2022-11-06T21:43:56.663Z,93.60
2022-11-06T21:46:05.485Z,93.70
2022-11-06T21:48:40.283Z,93.70
2022-11-06T21:50:41.149Z,93.70
2022-11-06T21:53:04.714Z,93.80
2022-11-06T21:55:44.255Z,93.50
2022-11-06T21:57:51.843Z,93.50
2022-11-06T21:59:58.719Z,93.80
2022-11-06T22:02:06.063Z,93.60
2022-11-06T22:04:14.053Z,93.50
2022-11-06T22:06:25.794Z,93.50
2022-11-06T22:08:32.975Z,93.10
2022-11-06T22:10:40.617Z,93.40
2022-11-06T22:12:47.442Z,93.60
2022-11-06T22:14:54.573Z,93.80
2022-11-06T22:17:01.401Z,93.90
2022-11-06T22:19:10.164Z,94.10
2022-11-06T22:21:18.623Z,94.20
2022-11-06T22:23:27.803Z,94.60
2022-11-06T22:25:35.144Z,95.00
2022-11-06T22:27:42.267Z,95.00
2022-11-06T22:29:49.401Z,95.10
2022-11-06T22:31:56.692Z,95.30
2022-11-06T22:34:03.972Z,95.40
2022-11-06T22:36:12.582Z,95.40
2022-11-06T22:38:19.915Z,95.10
2022-11-06T22:40:28.642Z,94.50
2022-11-06T22:42:36.536Z,94.30
2022-11-06T22:44:43.406Z,94.10
2022-11-06T22:46:50.690Z,94.10
2022-11-06T22:48:57.925Z,94.30
2022-11-06T22:51:06.438Z,94.60
2022-11-06T22:53:15.227Z,94.50
2022-11-06T22:55:22.441Z,94.60
2022-11-06T22:57:30.903Z,94.70
2022-11-06T22:59:38.648Z,94.60
2022-11-06T23:01:45.547Z,94.40
2022-11-06T23:03:57.410Z,94.30
2022-11-06T23:06:07.408Z,94.20
2022-11-06T23:08:14.846Z,94.20
2022-11-06T23:10:29.759Z,94.30
2022-11-06T23:12:38.740Z,94.50
2022-11-06T23:14:45.966Z,94.60
2022-11-06T23:17:03.181Z,94.80
2022-11-06T23:19:10.467Z,94.70
2022-11-06T23:21:19.343Z,95.10
2022-11-06T23:23:26.522Z,95.40
2022-11-06T23:25:34.418Z,95.40
2022-11-06T23:27:49.482Z,95.40
2022-11-06T23:30:01.537Z,95.30
2022-11-06T23:32:09.377Z,95.10
2022-11-06T23:34:16.813Z,95.20
2022-11-06T23:36:23.639Z,95.00
2022-11-06T23:38:30.818Z,94.80
2022-11-06T23:40:37.900Z,94.60
2022-11-06T23:42:47.076Z,94.60
2022-11-06T23:45:10.845Z,94.50
2022-11-06T23:47:18.541Z,94.60
2022-11-06T23:49:25.466Z,94.90
2022-11-06T23:51:32.598Z,94.80
2022-11-06T23:53:39.373Z,95.00
2022-11-06T23:55:46.758Z,95.30
2022-11-06T23:57:55.268Z,95.40
